Time;durP1;ratioP1;P1;durP2;ratioP2;P2;SDS_P1;SDS_P2;PMS_P1;PMS_P2;Temp;Humidity;BMP_temperature;BMP_pressure;BME280_temperature;BME280_humidity;BME280_pressure;Samples;Min_cycle;Max_cycle;Signal;HPM_P1;HPM_P2
2023/08/12 00:02:16;;;;;;;8.60;4.60;;;18.60;99.90;;;;;;5069261;28;20044;-61
2023/08/12 00:04:48;;;;;;;6.07;4.53;;;18.60;99.90;;;;;;5071856;28;20047;-62
2023/08/12 00:07:20;;;;;;;4.90;4.05;;;18.50;99.90;;;;;;5052944;28;20044;-62
2023/08/12 00:09:52;;;;;;;6.05;4.50;;;18.40;99.90;;;;;;5064817;28;20041;-62
2023/08/12 00:12:23;;;;;;;4.43;4.03;;;18.30;99.90;;;;;;5049092;28;20036;-62
2023/08/12 00:14:56;;;;;;;6.20;4.20;;;18.30;99.90;;;;;;5053018;28;20052;-62
2023/08/12 00:17:28;;;;;;;5.78;3.88;;;18.30;99.90;;;;;;5071838;28;20045;-62
2023/08/12 00:20:00;;;;;;;5.40;3.90;;;18.30;99.90;;;;;;5070056;28;20041;-62
2023/08/12 00:22:31;;;;;;;4.18;3.67;;;18.30;99.90;;;;;;5058875;28;20532;-62
2023/08/12 00:25:06;;;;;;;4.32;3.88;;;18.20;99.90;;;;;;5071356;28;20033;-62
2023/08/12 00:27:38;;;;;;;4.80;4.10;;;18.20;99.90;;;;;;5071430;28;20040;-62
2023/08/12 00:30:09;;;;;;;6.85;4.65;;;18.20;99.90;;;;;;5056118;28;20051;-63
2023/08/12 00:32:41;;;;;;;4.90;4.40;;;18.20;99.90;;;;;;5051372;28;20043;-63
2023/08/12 00:35:14;;;;;;;6.90;4.10;;;18.10;99.90;;;;;;5055424;28;20054;-63
2023/08/12 00:37:45;;;;;;;4.53;3.90;;;18.10;99.90;;;;;;5055149;28;20049;-63
2023/08/12 00:40:17;;;;;;;4.35;3.95;;;18.10;99.90;;;;;;5056585;28;20041;-64
2023/08/12 00:42:49;;;;;;;6.05;4.18;;;18.10;99.90;;;;;;5053021;28;20045;-63
2023/08/12 00:45:21;;;;;;;4.45;3.90;;;18.10;99.90;;;;;;5052535;28;20047;-63
2023/08/12 00:47:53;;;;;;;4.53;3.95;;;18.10;99.90;;;;;;5062899;28;20045;-63
2023/08/12 00:50:25;;;;;;;5.15;4.10;;;18.10;99.90;;;;;;5055275;28;20040;-63
2023/08/12 00:52:59;;;;;;;7.03;4.13;;;18.00;99.90;;;;;;5054612;28;20121;-63
2023/08/12 00:55:33;;;;;;;9.18;3.67;;;18.00;99.90;;;;;;5070208;28;20040;-63
2023/08/12 00:58:05;;;;;;;6.35;4.55;;;18.00;99.90;;;;;;5051398;28;20033;-62
2023/08/12 01:00:40;;;;;;;5.68;4.25;;;18.00;99.90;;;;;;5053514;28;20047;-62
2023/08/12 01:03:12;;;;;;;6.85;4.03;;;18.00;99.90;;;;;;5067783;28;20059;-62
2023/08/12 01:05:46;;;;;;;4.40;4.00;;;17.90;99.90;;;;;;5038047;28;20040;-62
2023/08/12 01:08:12;;;;;;;4.45;3.80;;;17.90;99.90;;;;;;5036931;28;20473;-62
2023/08/12 01:10:55;;;;;;;4.55;3.95;;;17.90;99.90;;;;;;5048949;28;20047;-63
2023/08/12 01:13:54;;;;;;;5.13;4.03;;;17.80;99.90;;;;;;5065314;28;20147;-62
2023/08/12 01:16:32;;;;;;;6.63;4.65;;;17.80;99.90;;;;;;5033103;28;20051;-62
2023/08/12 01:19:06;;;;;;;5.63;4.43;;;17.80;99.90;;;;;;5054294;28;20066;-62
2023/08/12 01:21:44;;;;;;;4.82;4.38;;;17.80;99.90;;;;;;5051485;28;20044;-62
2023/08/12 01:24:15;;;;;;;5.18;4.28;;;17.80;99.90;;;;;;5053998;28;20051;-62
2023/08/12 01:26:47;;;;;;;5.07;4.13;;;17.80;99.90;;;;;;5052811;28;20132;-62
2023/08/12 01:29:14;;;;;;;4.95;4.20;;;17.80;99.90;;;;;;5054470;28;20072;-62
2023/08/12 01:31:54;;;;;;;5.38;4.70;;;17.70;99.90;;;;;;5066399;28;20033;-62
2023/08/12 01:34:36;;;;;;;4.65;4.18;;;17.70;99.90;;;;;;5063594;28;20116;-62
2023/08/12 01:37:13;;;;;;;6.60;4.13;;;17.70;99.90;;;;;;5051312;28;20041;-62
2023/08/12 01:39:46;;;;;;;5.28;4.40;;;17.60;99.90;;;;;;5048147;28;20069;-62
2023/08/12 01:42:19;;;;;;;6.80;3.88;;;17.60;99.90;;;;;;5054414;28;20504;-62
2023/08/12 01:44:53;;;;;;;6.28;4.40;;;17.60;99.90;;;;;;5053842;28;20051;-63
2023/08/12 01:47:26;;;;;;;5.57;4.53;;;17.60;99.90;;;;;;5050583;28;20036;-62
2023/08/12 01:49:58;;;;;;;5.45;4.30;;;17.50;99.90;;;;;;5053854;28;20045;-62
2023/08/12 01:52:30;;;;;;;9.43;5.68;;;17.50;99.90;;;;;;5052416;28;20056;-62
2023/08/12 01:55:03;;;;;;;4.72;4.20;;;17.50;99.90;;;;;;5058801;28;20404;-62
2023/08/12 01:57:30;;;;;;;5.07;4.50;;;17.40;99.90;;;;;;5069864;28;20049;-63
2023/08/12 02:00:04;;;;;;;5.30;4.70;;;17.40;99.90;;;;;;5055717;28;20115;-62
2023/08/12 02:02:42;;;;;;;7.00;4.75;;;17.40;99.90;;;;;;5069117;28;20068;-64
2023/08/12 02:05:15;;;;;;;4.97;4.18;;;17.40;99.90;;;;;;5034100;28;20029;-62
2023/08/12 02:07:47;;;;;;;6.55;4.68;;;17.30;99.90;;;;;;5052049;28;20526;-62
2023/08/12 02:10:18;;;;;;;8.40;4.72;;;17.30;99.90;;;;;;5037544;28;20032;-62
2023/08/12 02:12:52;;;;;;;4.75;4.25;;;17.20;99.90;;;;;;5049718;28;20058;-62
2023/08/12 02:15:24;;;;;;;4.57;4.18;;;17.20;99.90;;;;;;5036898;28;20123;-62
2023/08/12 02:17:56;;;;;;;6.15;4.60;;;17.30;99.90;;;;;;5065924;28;20049;-62
2023/08/12 02:20:28;;;;;;;5.55;4.95;;;17.30;99.90;;;;;;5063013;28;20046;-62
2023/08/12 02:23:00;;;;;;;6.53;4.63;;;17.30;99.90;;;;;;5052094;28;20444;-62
2023/08/12 02:25:32;;;;;;;4.63;4.22;;;17.30;99.90;;;;;;5054003;28;20043;-62
2023/08/12 02:28:05;;;;;;;4.55;4.15;;;17.20;99.90;;;;;;5070665;28;20041;-62
2023/08/12 02:30:36;;;;;;;6.03;4.07;;;17.20;99.90;;;;;;5066138;28;20044;-63
2023/08/12 02:33:03;;;;;;;5.25;4.72;;;17.20;99.90;;;;;;5051790;28;20036;-62
2023/08/12 02:35:37;;;;;;;4.50;4.10;;;17.20;99.90;;;;;;5051861;28;20535;-62
2023/08/12 02:38:10;;;;;;;4.32;3.92;;;17.20;99.90;;;;;;5051885;28;20127;-62
2023/08/12 02:40:41;;;;;;;4.85;4.38;;;17.20;99.90;;;;;;5067775;28;20048;-62
2023/08/12 02:43:13;;;;;;;7.18;5.00;;;17.10;99.90;;;;;;5063694;28;20033;-62
2023/08/12 02:45:45;;;;;;;4.70;4.30;;;17.10;99.90;;;;;;5065839;28;20230;-62
2023/08/12 02:48:17;;;;;;;6.35;5.00;;;17.10;99.90;;;;;;5038146;28;20036;-62
2023/08/12 02:50:49;;;;;;;5.80;4.45;;;17.10;99.90;;;;;;5049532;28;20101;-62
2023/08/12 02:53:21;;;;;;;9.02;4.63;;;17.10;99.90;;;;;;5050233;28;20139;-62
2023/08/12 02:55:53;;;;;;;4.93;4.15;;;17.00;99.90;;;;;;5051106;28;20110;-62
2023/08/12 02:58:25;;;;;;;8.30;4.35;;;17.00;99.90;;;;;;5043199;28;20056;-62
2023/08/12 03:00:57;;;;;;;4.90;4.40;;;16.90;99.90;;;;;;5053581;28;20051;-62
2023/08/12 03:03:29;;;;;;;5.18;4.50;;;16.90;99.90;;;;;;5048873;28;20599;-63
2023/08/12 03:06:01;;;;;;;5.45;4.95;;;16.80;99.90;;;;;;5064440;28;20130;-62
2023/08/12 03:08:33;;;;;;;5.03;4.53;;;16.80;99.90;;;;;;5059196;28;20037;-63
2023/08/12 03:11:06;;;;;;;5.38;4.82;;;16.70;99.90;;;;;;5048555;28;20456;-62
2023/08/12 03:13:38;;;;;;;6.80;5.07;;;16.70;99.90;;;;;;5052761;28;20033;-62
2023/08/12 03:16:16;;;;;;;8.52;4.85;;;16.60;99.90;;;;;;5052140;28;20523;-63
2023/08/12 03:18:47;;;;;;;6.20;4.95;;;16.60;99.90;;;;;;5067231;28;20128;-62
2023/08/12 03:21:20;;;;;;;5.93;4.70;;;16.60;99.90;;;;;;5053281;28;20053;-62
2023/08/12 03:23:51;;;;;;;6.30;4.90;;;16.60;99.90;;;;;;5048567;28;20045;-62
2023/08/12 03:26:23;;;;;;;6.93;4.55;;;16.60;99.90;;;;;;5053507;28;20040;-63
2023/08/12 03:28:57;;;;;;;5.65;4.32;;;16.60;99.90;;;;;;5047442;28;20520;-62
2023/08/12 03:31:29;;;;;;;5.03;4.63;;;16.60;99.90;;;;;;5050387;28;20116;-62
2023/08/12 03:34:01;;;;;;;5.15;4.60;;;16.60;99.90;;;;;;5047263;28;20055;-62
2023/08/12 03:36:33;;;;;;;4.80;4.20;;;16.60;99.90;;;;;;5069108;28;20036;-62
2023/08/12 03:39:06;;;;;;;7.60;4.88;;;16.60;99.90;;;;;;5043162;28;20036;-63
2023/08/12 03:41:38;;;;;;;5.18;4.68;;;16.60;99.90;;;;;;5051339;28;20075;-62
2023/08/12 03:44:10;;;;;;;5.90;5.00;;;16.60;99.90;;;;;;5038322;28;20799;-62
2023/08/12 03:46:37;;;;;;;5.10;4.60;;;16.60;99.90;;;;;;5053939;28;20040;-63
2023/08/12 03:49:09;;;;;;;5.43;4.47;;;16.60;99.90;;;;;;5054472;28;20036;-63
2023/08/12 03:51:41;;;;;;;5.50;5.00;;;16.50;99.90;;;;;;5055583;28;20037;-62
2023/08/12 03:54:13;;;;;;;5.38;4.80;;;16.50;99.90;;;;;;5048112;28;20043;-62
2023/08/12 03:56:45;;;;;;;5.28;4.25;;;16.50;99.90;;;;;;5056052;28;20492;-63
2023/08/12 03:59:17;;;;;;;5.75;4.20;;;16.50;99.90;;;;;;5053767;28;20041;-63
2023/08/12 04:01:44;;;;;;;5.63;5.00;;;16.50;99.90;;;;;;5073037;28;20036;-62
2023/08/12 04:04:11;;;;;;;5.55;4.63;;;16.40;99.90;;;;;;5069968;28;20041;-63
2023/08/12 04:06:37;;;;;;;6.20;4.88;;;16.40;99.90;;;;;;5060160;28;20064;-63
2023/08/12 04:09:09;;;;;;;5.40;4.85;;;16.40;99.90;;;;;;5048246;28;20048;-63
2023/08/12 04:11:42;;;;;;;7.63;4.88;;;16.30;99.90;;;;;;5073214;28;20106;-63
2023/08/12 04:14:09;;;;;;;6.72;5.20;;;16.30;99.90;;;;;;5037788;28;20060;-62
2023/08/12 04:16:42;;;;;;;4.65;4.25;;;16.30;99.90;;;;;;5053479;28;20044;-63
2023/08/12 04:19:16;;;;;;;5.45;4.68;;;16.30;99.90;;;;;;5049432;28;20144;-62
2023/08/12 04:21:48;;;;;;;6.82;5.45;;;16.30;99.90;;;;;;5055973;28;20044;-62
2023/08/12 04:24:20;;;;;;;4.80;4.30;;;16.30;99.90;;;;;;5069831;28;20132;-62
2023/08/12 04:26:51;;;;;;;6.53;4.95;;;16.30;99.90;;;;;;5072576;28;20033;-63
2023/08/12 04:29:23;;;;;;;5.25;4.20;;;16.40;99.90;;;;;;5057077;28;20036;-63
2023/08/12 04:31:56;;;;;;;6.78;4.80;;;16.40;99.90;;;;;;5040409;28;20041;-62
2023/08/12 04:34:28;;;;;;;8.40;4.65;;;16.40;99.90;;;;;;5051679;28;20455;-62
2023/08/12 04:37:00;;;;;;;5.13;4.43;;;16.40;99.90;;;;;;5055093;28;20052;-63
2023/08/12 04:39:29;;;;;;;5.60;4.55;;;16.40;99.90;;;;;;5064576;28;20037;-63
2023/08/12 04:42:02;;;;;;;5.10;4.60;;;16.50;99.90;;;;;;5053543;28;20041;-62
2023/08/12 04:44:34;;;;;;;7.95;4.78;;;16.50;99.90;;;;;;5051505;28;20042;-62
2023/08/12 04:47:06;;;;;;;5.90;5.00;;;16.50;99.90;;;;;;5051447;28;20044;-63
2023/08/12 04:49:38;;;;;;;5.53;4.70;;;16.50;99.90;;;;;;5049348;28;20466;-63
2023/08/12 04:52:09;;;;;;;6.75;5.13;;;16.60;99.90;;;;;;5051614;28;20505;-62
2023/08/12 04:54:41;;;;;;;9.20;5.10;;;16.60;99.90;;;;;;5057353;28;20139;-62
2023/08/12 04:57:08;;;;;;;6.25;4.47;;;16.60;99.90;;;;;;5051203;28;20170;-63
2023/08/12 04:59:40;;;;;;;6.75;5.28;;;16.70;99.90;;;;;;5057499;28;20041;-63
2023/08/12 05:02:07;;;;;;;6.40;5.18;;;16.70;99.90;;;;;;5054139;28;20033;-63
2023/08/12 05:04:39;;;;;;;5.55;4.68;;;16.70;99.90;;;;;;5038345;28;20052;-63
2023/08/12 05:07:08;;;;;;;11.00;7.30;;;16.70;99.90;;;;;;5065472;28;20627;-62
2023/08/12 05:09:35;;;;;;;7.32;6.30;;;16.70;99.90;;;;;;5050076;28;20033;-62
2023/08/12 05:12:02;;;;;;;8.95;7.32;;;16.70;99.90;;;;;;5052880;28;20469;-63
2023/08/12 05:14:28;;;;;;;9.20;7.65;;;16.80;99.90;;;;;;5055592;28;20032;-63
2023/08/12 05:17:01;;;;;;;7.40;6.53;;;16.80;99.90;;;;;;5048834;28;20054;-63
2023/08/12 05:19:32;;;;;;;9.55;7.03;;;16.80;99.90;;;;;;5062483;28;20459;-62
2023/08/12 05:22:04;;;;;;;7.13;6.43;;;16.80;99.90;;;;;;5054820;28;20428;-63
2023/08/12 05:24:36;;;;;;;8.55;7.75;;;16.80;99.90;;;;;;5055527;28;20107;-62
2023/08/12 05:27:08;;;;;;;8.85;7.07;;;16.80;99.90;;;;;;5055139;28;20067;-62
2023/08/12 05:29:41;;;;;;;9.55;7.20;;;16.80;99.90;;;;;;5068627;28;20098;-62
2023/08/12 05:32:13;;;;;;;9.35;8.25;;;16.90;99.90;;;;;;5069115;28;20516;-62
2023/08/12 05:34:39;;;;;;;8.10;7.30;;;16.90;99.90;;;;;;5053535;28;20044;-62
2023/08/12 05:37:11;;;;;;;8.40;7.60;;;16.90;99.90;;;;;;5069980;28;20048;-62
2023/08/12 05:39:43;;;;;;;9.25;7.65;;;17.00;99.90;;;;;;5068142;28;20041;-62
2023/08/12 05:42:10;;;;;;;9.32;8.32;;;17.10;99.90;;;;;;5068297;28;20123;-62
2023/08/12 05:44:42;;;;;;;10.10;8.02;;;17.20;99.90;;;;;;5053784;28;20049;-62
2023/08/12 05:47:14;;;;;;;8.82;8.02;;;17.30;99.90;;;;;;5069556;28;20052;-62
2023/08/12 05:49:46;;;;;;;14.15;9.15;;;17.40;99.90;;;;;;5070858;28;20714;-62
2023/08/12 05:52:18;;;;;;;10.30;9.20;;;17.50;99.90;;;;;;5050306;28;20094;-62
2023/08/12 05:54:49;;;;;;;9.73;8.68;;;17.60;99.90;;;;;;5054557;28;20404;-62
2023/08/12 05:57:21;;;;;;;9.55;8.30;;;17.70;99.90;;;;;;5068432;28;20037;-62
2023/08/12 05:59:53;;;;;;;9.05;8.15;;;17.70;99.90;;;;;;5071232;28;20071;-62
2023/08/12 06:02:26;;;;;;;9.95;8.88;;;17.80;99.90;;;;;;5069947;28;20043;-62
2023/08/12 06:04:58;;;;;;;10.25;8.73;;;17.90;99.90;;;;;;5052321;28;20052;-62
2023/08/12 06:07:30;;;;;;;9.65;8.30;;;17.90;99.90;;;;;;5070966;28;20115;-62
2023/08/12 06:10:02;;;;;;;9.52;8.63;;;17.90;99.90;;;;;;5067107;28;20040;-62
2023/08/12 06:12:34;;;;;;;10.80;9.75;;;18.00;99.90;;;;;;5071505;28;20420;-62
2023/08/12 06:15:06;;;;;;;9.80;8.90;;;18.00;99.90;;;;;;5069205;28;20115;-62
2023/08/12 06:17:33;;;;;;;10.77;8.30;;;18.10;99.90;;;;;;5037015;28;20047;-62
2023/08/12 06:20:05;;;;;;;10.23;8.30;;;18.10;99.90;;;;;;5069719;28;20036;-62
2023/08/12 06:22:38;;;;;;;9.60;8.70;;;18.20;99.90;;;;;;5056956;28;20044;-62
2023/08/12 06:25:10;;;;;;;9.65;8.75;;;18.20;99.90;;;;;;5070372;28;20287;-62
2023/08/12 06:27:41;;;;;;;9.93;8.95;;;18.30;99.90;;;;;;5066412;28;20044;-62
2023/08/12 06:30:14;;;;;;;11.18;8.82;;;18.30;99.90;;;;;;5066910;28;20047;-62
2023/08/12 06:32:45;;;;;;;9.93;8.93;;;18.30;99.90;;;;;;5069484;28;20050;-62
2023/08/12 06:35:17;;;;;;;10.00;9.10;;;18.40;99.90;;;;;;5050037;28;20043;-62
2023/08/12 06:37:49;;;;;;;9.45;8.55;;;18.40;99.90;;;;;;5050985;28;20076;-62
2023/08/12 06:40:21;;;;;;;10.02;9.00;;;18.40;99.90;;;;;;5069773;28;20495;-62
2023/08/12 06:42:53;;;;;;;9.32;8.43;;;18.50;99.90;;;;;;5065043;28;20052;-62
2023/08/12 06:45:25;;;;;;;9.35;8.45;;;18.50;99.90;;;;;;5071260;28;20045;-62
2023/08/12 06:47:57;;;;;;;13.02;9.45;;;18.60;99.90;;;;;;5051197;28;20044;-62
2023/08/12 06:50:29;;;;;;;9.70;8.80;;;18.60;99.90;;;;;;5067788;28;20037;-62
2023/08/12 06:53:01;;;;;;;10.95;9.40;;;18.70;99.90;;;;;;5067839;28;20055;-62
2023/08/12 06:55:32;;;;;;;11.80;8.50;;;18.80;99.90;;;;;;5070833;28;20131;-62
2023/08/12 06:58:04;;;;;;;9.38;8.23;;;18.90;99.90;;;;;;5067710;28;20086;-62
2023/08/12 07:00:36;;;;;;;9.13;8.18;;;19.00;99.90;;;;;;5070139;28;20455;-62
2023/08/12 07:03:08;;;;;;;8.93;8.02;;;19.10;99.90;;;;;;5067836;28;20492;-62
2023/08/12 07:05:40;;;;;;;9.73;8.07;;;19.20;99.90;;;;;;5067487;28;20484;-62
2023/08/12 07:08:12;;;;;;;10.13;7.72;;;19.30;99.90;;;;;;5070643;28;20045;-62
2023/08/12 07:10:44;;;;;;;8.55;7.75;;;19.40;99.90;;;;;;5071129;28;20416;-62
2023/08/12 07:13:15;;;;;;;7.97;7.18;;;19.50;99.90;;;;;;5050350;28;20045;-62
2023/08/12 07:15:47;;;;;;;8.60;7.78;;;19.70;99.90;;;;;;5068068;28;20048;-62
2023/08/12 07:18:19;;;;;;;9.07;7.93;;;19.90;99.90;;;;;;5033668;28;20071;-62
2023/08/12 07:20:51;;;;;;;8.60;7.70;;;20.10;99.90;;;;;;5071066;28;20137;-63
2023/08/12 07:23:23;;;;;;;9.50;8.18;;;20.20;99.90;;;;;;5070012;28;20119;-63
2023/08/12 07:25:55;;;;;;;11.55;8.20;;;20.30;99.90;;;;;;5069162;28;20050;-63
2023/08/12 07:28:22;;;;;;;8.93;8.05;;;20.30;99.90;;;;;;5057487;28;20036;-63
2023/08/12 07:30:54;;;;;;;8.75;7.80;;;20.30;99.90;;;;;;5073975;28;20070;-63
2023/08/12 07:33:26;;;;;;;8.50;7.63;;;20.30;99.90;;;;;;5075421;28;20526;-63
2023/08/12 07:35:58;;;;;;;8.73;7.93;;;20.40;99.90;;;;;;5072696;28;20045;-63
2023/08/12 07:38:30;;;;;;;8.63;7.68;;;20.40;99.90;;;;;;5066941;28;20047;-64
2023/08/12 07:41:02;;;;;;;8.32;7.53;;;20.50;99.90;;;;;;5072228;28;20052;-63
2023/08/12 07:43:34;;;;;;;8.13;7.35;;;20.50;99.90;;;;;;5056008;28;20050;-63
2023/08/12 07:46:06;;;;;;;9.05;7.53;;;20.60;99.90;;;;;;5073444;28;20036;-63
2023/08/12 07:48:38;;;;;;;8.73;7.93;;;20.60;99.90;;;;;;5056410;28;20051;-63
2023/08/12 07:51:10;;;;;;;7.63;6.93;;;20.70;99.90;;;;;;5072469;28;20052;-63
2023/08/12 07:53:42;;;;;;;7.30;6.70;;;20.80;99.90;;;;;;5071765;28;20035;-63
2023/08/12 07:56:14;;;;;;;8.30;7.40;;;20.90;99.90;;;;;;5075200;28;20103;-62
2023/08/12 07:58:47;;;;;;;8.23;7.43;;;21.00;99.90;;;;;;5067233;28;20033;-62
2023/08/12 08:01:19;;;;;;;8.63;7.82;;;21.20;99.90;;;;;;5058672;28;20726;-62
2023/08/12 08:03:51;;;;;;;8.68;7.78;;;21.30;99.90;;;;;;5070119;28;20055;-62
2023/08/12 08:06:24;;;;;;;7.68;6.97;;;21.40;99.90;;;;;;5069630;28;20492;-62
2023/08/12 08:08:51;;;;;;;10.68;8.18;;;21.60;99.90;;;;;;5075616;28;20106;-63
2023/08/12 08:11:24;;;;;;;10.27;8.07;;;21.70;99.90;;;;;;5071177;28;20037;-62
2023/08/12 08:13:58;;;;;;;7.80;6.90;;;21.80;99.90;;;;;;5051672;28;20045;-62
2023/08/12 08:16:30;;;;;;;;;;;21.90;99.90;;;;;;5068413;28;20041;-62
2023/08/12 08:19:01;;;;;;;8.15;6.35;;;21.90;99.90;;;;;;5069004;28;19970;-62
2023/08/12 08:21:33;;;;;;;6.63;5.93;;;22.00;99.90;;;;;;5070299;28;20037;-62
2023/08/12 08:24:06;;;;;;;6.13;5.63;;;22.10;99.90;;;;;;5072869;28;20440;-62
2023/08/12 08:26:40;;;;;;;8.70;6.03;;;22.10;99.90;;;;;;5067600;28;20539;-62
2023/08/12 08:29:12;;;;;;;7.15;6.43;;;22.20;99.90;;;;;;5066670;28;20064;-62
2023/08/12 08:31:44;;;;;;;5.25;4.78;;;22.30;99.90;;;;;;5054578;28;20045;-62
2023/08/12 08:34:16;;;;;;;5.15;4.65;;;22.40;99.90;;;;;;5069240;28;20571;-62
2023/08/12 08:36:48;;;;;;;5.18;4.68;;;22.50;99.90;;;;;;5071309;28;20041;-63
2023/08/12 08:39:19;;;;;;;5.15;4.70;;;22.60;99.90;;;;;;5067283;28;20423;-62
2023/08/12 08:41:54;;;;;;;5.32;4.82;;;22.70;99.90;;;;;;5053226;28;20193;-63
2023/08/12 08:44:31;;;;;;;4.97;4.57;;;22.80;99.90;;;;;;5053477;28;20054;-62
2023/08/12 08:46:59;;;;;;;6.18;4.88;;;22.90;99.90;;;;;;5070487;28;20045;-62
2023/08/12 08:49:32;;;;;;;8.20;4.60;;;22.90;99.90;;;;;;5067643;28;20409;-63
2023/08/12 08:52:04;;;;;;;5.85;4.72;;;22.90;99.90;;;;;;5071338;28;20056;-62
2023/08/12 08:54:31;;;;;;;6.32;4.70;;;23.00;99.90;;;;;;5070004;28;20113;-64
2023/08/12 08:57:03;;;;;;;5.65;5.10;;;23.10;99.90;;;;;;5056357;28;20407;-63
2023/08/12 08:59:35;;;;;;;5.20;4.40;;;23.10;99.90;;;;;;5072448;28;20127;-63
2023/08/12 09:02:02;;;;;;;5.55;4.80;;;23.30;99.90;;;;;;5053567;28;20067;-64
2023/08/12 09:04:30;;;;;;;9.80;5.63;;;23.30;99.90;;;;;;5038705;28;20526;-63
2023/08/12 09:06:58;;;;;;;5.25;4.72;;;23.40;99.90;;;;;;5056611;28;20119;-63
2023/08/12 09:09:32;;;;;;;5.45;4.95;;;23.60;99.90;;;;;;5055945;28;20127;-62
2023/08/12 09:12:06;;;;;;;7.20;5.47;;;23.70;99.90;;;;;;5061413;28;20028;-62
2023/08/12 09:14:38;;;;;;;7.10;5.78;;;24.00;99.90;;;;;;5071147;28;20534;-62
2023/08/12 09:17:04;;;;;;;5.35;4.85;;;24.10;99.90;;;;;;5069903;28;20075;-62
2023/08/12 09:19:37;;;;;;;5.53;4.53;;;24.10;99.90;;;;;;5071251;28;20512;-63
2023/08/12 09:22:09;;;;;;;4.85;4.13;;;24.20;99.90;;;;;;5069056;28;20045;-62
2023/08/12 09:24:42;;;;;;;4.87;4.37;;;24.30;99.90;;;;;;5069957;28;20090;-62
2023/08/12 09:27:18;;;;;;;7.32;4.60;;;24.40;99.90;;;;;;5068202;28;20733;-62
2023/08/12 09:29:55;;;;;;;4.93;4.43;;;24.40;99.90;;;;;;5054383;28;20131;-69
2023/08/12 09:32:28;;;;;;;5.18;4.70;;;24.60;99.90;;;;;;5054230;28;20047;-62
2023/08/12 09:35:03;;;;;;;4.88;4.22;;;24.80;99.90;;;;;;5068249;28;20033;-62
2023/08/12 09:37:34;;;;;;;4.90;4.18;;;24.90;99.90;;;;;;5067528;28;20037;-62
2023/08/12 09:40:04;;;;;;;4.82;4.15;;;25.10;99.90;;;;;;5069094;28;20524;-62
2023/08/12 09:42:44;;;;;;;6.03;4.80;;;25.10;99.90;;;;;;5068843;28;20040;-62
2023/08/12 09:45:11;;;;;;;5.03;4.50;;;25.10;99.90;;;;;;5049895;28;20112;-62
2023/08/12 09:47:44;;;;;;;5.65;4.43;;;25.20;99.90;;;;;;5050184;28;20047;-62
2023/08/12 09:50:15;;;;;;;4.80;4.40;;;25.50;99.90;;;;;;5067077;28;20036;-62
2023/08/12 09:52:43;;;;;;;5.88;5.28;;;25.60;99.90;;;;;;5066812;28;20119;-62
2023/08/12 09:55:17;;;;;;;5.13;4.63;;;25.60;99.90;;;;;;5050355;28;20567;-62
2023/08/12 09:57:52;;;;;;;4.95;4.55;;;25.70;99.90;;;;;;5069943;28;20048;-62
2023/08/12 10:00:25;;;;;;;4.50;4.10;;;25.70;99.90;;;;;;5066589;28;20497;-62
2023/08/12 10:02:59;;;;;;;5.03;4.55;;;25.80;99.90;;;;;;5069009;28;20042;-63
2023/08/12 10:05:33;;;;;;;5.22;4.68;;;25.90;99.90;;;;;;5050032;28;20156;-62
2023/08/12 10:08:07;;;;;;;5.18;4.60;;;26.10;99.90;;;;;;5067205;28;20572;-62
2023/08/12 10:10:39;;;;;;;;;;;26.20;99.90;;;;;;5064434;28;20518;-62
2023/08/12 10:13:12;;;;;;;4.00;3.60;;;26.40;99.90;;;;;;5066512;28;19974;-62
2023/08/12 10:15:44;;;;;;;4.82;4.10;;;26.60;99.90;;;;;;5069294;28;20732;-62
2023/08/12 10:18:18;;;;;;;4.88;4.20;;;26.80;99.90;;;;;;5050107;28;20110;-62
2023/08/12 10:20:47;;;;;;;5.65;3.70;;;26.90;99.90;;;;;;5069632;28;20082;-62
2023/08/12 10:23:19;;;;;;;3.97;3.67;;;27.20;99.90;;;;;;5069361;28;20041;-62
2023/08/12 10:25:54;;;;;;;6.38;5.05;;;27.30;99.90;;;;;;5049164;28;20060;-62
2023/08/12 10:28:26;;;;;;;4.40;3.80;;;27.40;99.90;;;;;;5069050;28;20681;-62
2023/08/12 10:30:58;;;;;;;6.93;4.05;;;27.40;99.90;;;;;;5069703;28;20041;-62
2023/08/12 10:33:25;;;;;;;5.05;3.65;;;27.30;99.90;;;;;;5054017;28;20047;-62
2023/08/12 10:35:56;;;;;;;4.55;3.88;;;27.20;99.90;;;;;;5064951;28;20040;-62
2023/08/12 10:38:28;;;;;;;5.18;4.00;;;27.10;99.90;;;;;;5065962;28;20741;-62
2023/08/12 10:41:23;;;;;;;4.60;4.18;;;27.00;99.90;;;;;;5055675;28;20131;-62
2023/08/12 10:44:05;;;;;;;4.40;4.00;;;27.20;99.90;;;;;;5070045;28;20049;-62
2023/08/12 10:46:37;;;;;;;6.43;3.63;;;27.40;99.90;;;;;;5033744;28;20082;-62
2023/08/12 10:49:12;;;;;;;5.03;4.53;;;27.40;99.90;;;;;;5050300;28;20032;-62
2023/08/12 10:51:46;;;;;;;4.75;3.90;;;27.60;99.90;;;;;;5068154;28;20416;-62
2023/08/12 10:54:27;;;;;;;8.52;4.30;;;27.70;99.90;;;;;;5065314;28;20041;-62
2023/08/12 10:57:14;;;;;;;4.63;3.95;;;27.90;99.90;;;;;;5063838;28;20036;-63
2023/08/12 10:59:44;;;;;;;4.60;3.67;;;28.00;99.90;;;;;;5064217;28;20071;-62
2023/08/12 11:02:16;;;;;;;4.75;3.80;;;27.90;99.90;;;;;;5069686;28;20055;-62
2023/08/12 11:04:43;;;;;;;5.20;4.35;;;27.80;99.90;;;;;;5072571;28;20123;-63
2023/08/12 11:07:19;;;;;;;6.20;4.23;;;27.80;99.90;;;;;;5071159;28;20048;-62
2023/08/12 11:09:55;;;;;;;4.18;3.72;;;27.80;99.90;;;;;;5070839;28;20389;-62
2023/08/12 11:12:35;;;;;;;5.70;4.50;;;27.80;99.90;;;;;;5054547;28;20049;-62
2023/08/12 11:15:07;;;;;;;8.15;4.13;;;27.80;99.90;;;;;;5075629;28;20123;-63
2023/08/12 11:17:41;;;;;;;6.70;4.70;;;27.90;99.90;;;;;;5075238;28;20063;-62
2023/08/12 11:20:13;;;;;;;4.45;4.05;;;28.00;99.90;;;;;;5068793;28;20051;-63
2023/08/12 11:22:46;;;;;;;;;;;28.00;99.90;;;;;;5070700;28;20063;-62
2023/08/12 11:25:14;;;;;;;7.43;5.07;;;28.00;99.90;;;;;;5072786;28;19921;-63
2023/08/12 11:27:47;;;;;;;;;;;27.90;99.90;;;;;;5071999;28;20127;-62
2023/08/12 11:30:21;;;;;;;4.97;4.47;;;27.80;99.90;;;;;;5065858;28;19920;-62
2023/08/12 11:32:55;;;;;;;4.72;4.25;;;27.80;99.90;;;;;;5071851;28;20037;-62
2023/08/12 11:35:28;;;;;;;6.50;4.63;;;27.70;99.90;;;;;;5072413;28;20043;-62
2023/08/12 11:37:57;;;;;;;5.20;4.70;;;27.70;99.90;;;;;;5057009;28;20102;-62
2023/08/12 11:40:26;;;;;;;4.50;4.10;;;27.70;99.90;;;;;;5074264;28;20493;-62
2023/08/12 11:42:54;;;;;;;5.43;4.50;;;27.60;99.90;;;;;;5068688;28;20070;-62
2023/08/12 11:45:27;;;;;;;;;;;27.50;99.90;;;;;;5068185;28;20040;-62
2023/08/12 11:47:59;;;;;;;4.87;4.37;;;27.50;99.90;;;;;;5069162;28;19920;-62
2023/08/12 11:50:26;;;;;;;4.72;3.90;;;27.60;99.90;;;;;;5071214;28;20036;-62
2023/08/12 11:52:55;;;;;;;4.35;3.78;;;27.50;99.90;;;;;;5071911;28;20055;-62
2023/08/12 11:55:27;;;;;;;4.10;3.70;;;27.40;99.90;;;;;;5051582;28;20037;-62
2023/08/12 11:57:59;;;;;;;4.15;3.75;;;27.40;99.90;;;;;;5055236;28;20054;-62
2023/08/12 12:00:32;;;;;;;4.93;3.88;;;27.40;99.90;;;;;;5050742;28;20041;-62
2023/08/12 12:03:06;;;;;;;6.80;3.78;;;27.40;99.90;;;;;;5062796;28;20040;-63
2023/08/12 12:05:35;;;;;;;5.30;3.67;;;27.40;99.90;;;;;;5066310;28;20479;-62
2023/08/12 12:08:09;;;;;;;3.80;3.40;;;27.50;99.90;;;;;;5064385;28;20392;-62
2023/08/12 12:10:41;;;;;;;7.22;2.75;;;27.50;99.90;;;;;;5050404;28;20041;-62
2023/08/12 12:13:14;;;;;;;4.43;1.92;;;27.50;99.90;;;;;;5058611;28;20037;-62
2023/08/12 12:15:46;;;;;;;;;;;27.60;99.90;;;;;;5055453;28;20045;-62
2023/08/12 12:18:17;;;;;;;4.55;2.42;;;27.60;99.90;;;;;;5069574;28;20360;-62
2023/08/12 12:20:56;;;;;;;4.57;2.92;;;27.60;99.90;;;;;;5069198;28;20052;-62
2023/08/12 12:23:31;;;;;;;4.07;3.67;;;27.80;99.90;;;;;;5068842;28;20043;-62
2023/08/12 12:26:03;;;;;;;5.60;3.25;;;27.80;99.90;;;;;;5072175;28;20068;-62
2023/08/12 12:28:35;;;;;;;;;;;27.80;99.90;;;;;;5070022;28;20116;-62
2023/08/12 12:31:07;;;;;;;4.07;3.42;;;27.90;99.90;;;;;;5074114;28;19920;-62
2023/08/12 12:33:39;;;;;;;3.50;3.07;;;28.00;99.90;;;;;;5069400;28;20040;-62
2023/08/12 12:36:11;;;;;;;4.10;3.50;;;27.90;99.90;;;;;;5053151;28;20857;-62
2023/08/12 12:38:43;;;;;;;4.35;3.38;;;27.80;99.90;;;;;;5071518;28;20120;-63
2023/08/12 12:41:15;;;;;;;4.95;3.85;;;27.70;99.90;;;;;;5055462;28;20051;-62
2023/08/12 12:43:47;;;;;;;3.80;3.50;;;27.70;99.90;;;;;;5052762;28;20044;-62
2023/08/12 12:46:18;;;;;;;5.05;3.90;;;27.70;99.90;;;;;;5062218;28;20039;-62
2023/08/12 12:48:50;;;;;;;4.68;3.50;;;27.90;99.90;;;;;;5072692;28;20052;-63
2023/08/12 12:51:22;;;;;;;4.20;3.78;;;28.10;99.90;;;;;;5069423;28;20124;-63
2023/08/12 12:53:54;;;;;;;5.00;3.88;;;28.10;99.90;;;;;;5065059;28;20479;-62
2023/08/12 12:56:26;;;;;;;5.18;3.55;;;28.20;99.90;;;;;;5066635;28;20429;-62
2023/08/12 12:58:58;;;;;;;5.43;4.40;;;28.40;99.90;;;;;;5069693;28;20059;-64
2023/08/12 13:01:30;;;;;;;4.50;3.97;;;28.60;99.90;;;;;;5056214;28;20059;-62
2023/08/12 13:04:02;;;;;;;5.47;4.38;;;28.60;99.90;;;;;;5050705;28;20101;-62
2023/08/12 13:06:29;;;;;;;4.35;3.95;;;28.70;99.90;;;;;;5069001;28;20075;-63
2023/08/12 13:09:01;;;;;;;5.50;4.32;;;28.80;99.90;;;;;;5072232;28;20031;-62
2023/08/12 13:11:36;;;;;;;4.55;4.05;;;29.00;99.90;;;;;;5070733;28;20024;-62
2023/08/12 13:14:08;;;;;;;5.53;4.30;;;29.00;99.90;;;;;;5066476;28;20524;-63